Time;durP1;ratioP1;P1;durP2;ratioP2;P2;SDS_P1;SDS_P2;PMS_P1;PMS_P2;Temp;Humidity;BMP_temperature;BMP_pressure;BME280_temperature;BME280_humidity;BME280_pressure;Samples;Min_cycle;Max_cycle;Signal;HPM_P1;HPM_P2
2023/12/21 00:00:47;;;;;;;4.40;3.90;;;9.60;99.90;;;;;;4996227;28;20460;-38
2023/12/21 00:03:13;;;;;;;5.77;4.40;;;9.60;99.90;;;;;;4995896;28;20479;-37
2023/12/21 00:05:39;;;;;;;3.97;3.63;;;9.60;99.90;;;;;;4951501;28;21257;-33
2023/12/21 00:08:06;;;;;;;5.60;4.00;;;9.60;99.90;;;;;;4997602;28;20445;-34
2023/12/21 00:10:31;;;;;;;4.70;4.27;;;9.60;99.90;;;;;;4991083;28;20507;-35
2023/12/21 00:13:02;;;;;;;5.93;4.53;;;9.60;99.90;;;;;;4977479;28;20436;-33
2023/12/21 00:15:28;;;;;;;7.10;5.07;;;9.60;99.90;;;;;;4994967;28;21185;-36
2023/12/21 00:17:54;;;;;;;5.90;4.77;;;9.60;99.90;;;;;;4952981;28;20653;-37
2023/12/21 00:20:20;;;;;;;6.00;4.40;;;9.60;99.90;;;;;;4998158;28;20521;-37
2023/12/21 00:22:49;;;;;;;5.57;4.80;;;9.70;99.90;;;;;;4994299;28;20812;-36
2023/12/21 00:25:15;;;;;;;6.87;4.27;;;9.70;99.90;;;;;;4970943;28;20433;-37
2023/12/21 00:27:43;;;;;;;5.47;4.17;;;9.70;99.90;;;;;;4976964;28;20984;-36
2023/12/21 00:30:09;;;;;;;7.10;4.47;;;9.70;99.90;;;;;;4992701;28;20834;-33
2023/12/21 00:32:36;;;;;;;9.27;4.60;;;9.70;99.90;;;;;;4991217;28;21023;-33
2023/12/21 00:35:05;;;;;;;5.87;4.53;;;9.70;99.90;;;;;;4959300;28;20487;-37
2023/12/21 00:37:36;;;;;;;6.10;5.07;;;9.70;99.90;;;;;;4994369;28;20893;-35
2023/12/21 00:40:11;;;;;;;5.83;4.60;;;9.70;99.90;;;;;;4979666;28;21229;-33
2023/12/21 00:42:41;;;;;;;4.87;4.37;;;9.70;99.90;;;;;;4987289;28;20914;-34
2023/12/21 00:45:08;;;;;;;5.10;4.60;;;9.70;99.90;;;;;;4993291;28;20412;-33
2023/12/21 00:47:34;;;;;;;7.13;4.70;;;9.70;99.90;;;;;;4987525;28;20436;-35
2023/12/21 00:50:02;;;;;;;5.40;4.90;;;9.70;99.90;;;;;;4993202;28;20413;-33
2023/12/21 00:52:28;;;;;;;5.80;4.67;;;9.70;99.90;;;;;;4963937;28;20453;-35
2023/12/21 00:54:57;;;;;;;5.40;4.90;;;9.70;99.90;;;;;;4975963;28;21271;-37
2023/12/21 00:57:23;;;;;;;5.03;4.63;;;9.70;99.90;;;;;;4972396;28;20563;-37
2023/12/21 00:59:49;;;;;;;6.60;4.60;;;9.70;99.90;;;;;;4993821;28;20424;-37
2023/12/21 01:02:15;;;;;;;9.33;5.10;;;9.70;99.90;;;;;;4989645;28;20478;-37
2023/12/21 01:04:43;;;;;;;8.83;5.00;;;9.70;99.90;;;;;;4991699;28;20425;-34
2023/12/21 01:07:11;;;;;;;5.80;4.73;;;9.70;99.90;;;;;;4987540;28;20515;-35
2023/12/21 01:09:39;;;;;;;7.40;5.20;;;9.70;99.90;;;;;;4963824;28;21237;-38
2023/12/21 01:12:16;;;;;;;6.80;6.10;;;9.70;99.90;;;;;;4994394;28;21077;-36
2023/12/21 01:14:42;;;;;;;6.20;4.80;;;9.70;99.90;;;;;;4967391;28;20461;-36
2023/12/21 01:17:11;;;;;;;6.07;5.13;;;9.70;99.90;;;;;;4996426;28;20862;-36
2023/12/21 01:19:37;;;;;;;5.50;5.00;;;9.70;99.90;;;;;;4993588;28;20923;-33
2023/12/21 01:22:03;;;;;;;8.00;5.50;;;9.70;99.90;;;;;;4956725;28;20476;-36
2023/12/21 01:24:29;;;;;;;5.77;5.10;;;9.70;99.90;;;;;;4975728;28;20441;-32
2023/12/21 01:26:55;;;;;;;5.97;5.40;;;9.70;99.90;;;;;;4993726;28;20445;-38
2023/12/21 01:29:24;;;;;;;6.43;5.87;;;9.70;99.90;;;;;;4995016;28;20448;-37
2023/12/21 01:31:57;;;;;;;6.10;5.50;;;9.70;99.90;;;;;;4976042;28;20446;-36
2023/12/21 01:34:23;;;;;;;6.60;6.00;;;9.80;99.90;;;;;;4994459;28;20484;-34
2023/12/21 01:36:51;;;;;;;6.83;6.23;;;9.80;99.90;;;;;;4977041;28;20449;-33
2023/12/21 01:39:18;;;;;;;5.57;5.07;;;9.80;99.90;;;;;;4993591;28;21436;-38
2023/12/21 01:41:45;;;;;;;6.10;5.50;;;9.80;99.90;;;;;;4996914;28;21568;-35
2023/12/21 01:44:14;;;;;;;5.70;4.97;;;9.80;99.90;;;;;;4974460;28;20909;-36
2023/12/21 01:46:44;;;;;;;6.40;5.80;;;9.80;99.90;;;;;;4989927;28;21036;-34
2023/12/21 01:49:14;;;;;;;6.17;5.33;;;9.80;99.90;;;;;;4999206;28;20776;-35
2023/12/21 01:51:44;;;;;;;5.73;5.23;;;9.80;99.90;;;;;;4993727;28;20439;-36
2023/12/21 01:54:11;;;;;;;6.33;5.73;;;9.80;99.90;;;;;;4964379;28;20517;-37
2023/12/21 01:56:42;;;;;;;7.33;6.00;;;9.80;99.90;;;;;;5001504;28;20466;-37
2023/12/21 01:59:08;;;;;;;8.00;6.00;;;9.80;99.90;;;;;;5001905;28;20559;-33
2023/12/21 02:01:35;;;;;;;5.70;5.20;;;9.80;99.90;;;;;;5000526;28;20444;-37
2023/12/21 02:04:01;;;;;;;6.17;5.57;;;9.80;99.90;;;;;;4976155;28;20439;-35
2023/12/21 02:06:30;;;;;;;6.43;5.73;;;9.80;99.90;;;;;;4973991;28;20480;-32
2023/12/21 02:08:56;;;;;;;6.23;5.60;;;9.80;99.90;;;;;;4991546;28;20441;-36
2023/12/21 02:11:22;;;;;;;7.00;5.73;;;9.80;99.90;;;;;;4963298;28;20890;-38
2023/12/21 02:13:48;;;;;;;5.77;5.23;;;9.80;99.90;;;;;;4981713;28;21120;-37
2023/12/21 02:16:27;;;;;;;6.93;6.07;;;9.80;99.90;;;;;;4964491;28;20492;-37
2023/12/21 02:18:54;;;;;;;6.57;5.80;;;9.80;99.90;;;;;;4996370;28;20475;-31
2023/12/21 02:21:24;;;;;;;5.60;5.10;;;9.80;99.90;;;;;;4981699;28;21299;-34
2023/12/21 02:23:52;;;;;;;6.00;5.40;;;9.90;99.90;;;;;;5000208;28;20434;-35
2023/12/21 02:26:21;;;;;;;7.67;5.00;;;9.80;99.90;;;;;;4996728;28;20449;-36
2023/12/21 02:28:47;;;;;;;5.83;5.10;;;9.80;99.90;;;;;;4968680;28;20459;-37
2023/12/21 02:31:13;;;;;;;6.67;5.43;;;9.80;99.90;;;;;;5002833;28;20429;-36
2023/12/21 02:33:39;;;;;;;5.90;5.40;;;9.80;99.90;;;;;;4998219;28;20429;-37
2023/12/21 02:36:21;;;;;;;5.97;5.37;;;9.90;99.90;;;;;;4979849;28;20452;-37
2023/12/21 02:38:49;;;;;;;5.60;4.87;;;9.80;99.90;;;;;;4992518;28;20467;-37
2023/12/21 02:41:15;;;;;;;5.13;4.63;;;9.80;99.90;;;;;;4989960;28;21083;-36
2023/12/21 02:43:41;;;;;;;5.83;5.27;;;9.80;99.90;;;;;;4978762;28;20482;-34
2023/12/21 02:46:10;;;;;;;5.33;4.83;;;9.90;99.90;;;;;;4960101;28;20464;-37
2023/12/21 02:48:36;;;;;;;5.90;5.30;;;9.90;99.90;;;;;;4977719;28;20430;-32
2023/12/21 02:51:02;;;;;;;5.10;4.60;;;9.90;99.90;;;;;;4996007;28;20432;-36
2023/12/21 02:53:28;;;;;;;5.70;5.07;;;9.90;99.90;;;;;;4991989;28;20421;-36
2023/12/21 02:55:54;;;;;;;6.53;4.90;;;9.90;99.90;;;;;;4990713;28;20566;-37
2023/12/21 02:58:20;;;;;;;5.33;4.83;;;9.90;99.90;;;;;;4993269;28;20455;-35
2023/12/21 03:00:49;;;;;;;5.80;5.20;;;9.90;99.90;;;;;;4992597;28;20932;-35
2023/12/21 03:03:22;;;;;;;5.70;5.03;;;9.90;99.90;;;;;;4970761;28;20954;-35
2023/12/21 03:05:50;;;;;;;6.20;4.60;;;9.90;99.90;;;;;;4995013;28;20854;-38
2023/12/21 03:08:17;;;;;;;4.90;4.47;;;9.90;99.90;;;;;;4960867;28;20428;-34
2023/12/21 03:10:43;;;;;;;4.80;4.00;;;9.90;99.90;;;;;;4975107;28;20460;-35
2023/12/21 03:13:09;;;;;;;4.60;4.10;;;9.90;99.90;;;;;;4993472;28;20475;-35
2023/12/21 03:15:35;;;;;;;5.70;4.43;;;9.90;99.90;;;;;;4993423;28;21310;-31
2023/12/21 03:18:03;;;;;;;5.00;4.50;;;9.90;99.90;;;;;;4997021;28;20459;-37
2023/12/21 03:20:29;;;;;;;5.73;4.37;;;9.90;99.90;;;;;;4974968;28;20515;-35
2023/12/21 03:22:55;;;;;;;5.80;4.60;;;9.90;99.90;;;;;;4972287;28;20531;-34
2023/12/21 03:25:24;;;;;;;4.10;3.70;;;9.90;99.90;;;;;;4954875;28;20457;-35
2023/12/21 03:27:50;;;;;;;4.57;4.13;;;9.90;99.90;;;;;;4976868;28;20437;-32
2023/12/21 03:30:19;;;;;;;5.77;4.10;;;9.90;99.90;;;;;;4990136;28;20483;-34
2023/12/21 03:32:45;;;;;;;4.53;4.13;;;9.90;99.90;;;;;;5006186;23;20574;-36
2023/12/21 03:35:11;;;;;;;4.60;4.20;;;9.90;99.90;;;;;;5002568;28;20487;-38
2023/12/21 03:37:39;;;;;;;5.80;4.60;;;9.90;99.90;;;;;;4982789;28;20494;-39
2023/12/21 03:40:09;;;;;;;3.87;3.57;;;9.90;99.90;;;;;;4961771;28;20438;-37
2023/12/21 03:42:38;;;;;;;4.47;4.00;;;9.90;99.90;;;;;;4943983;28;20477;-37
2023/12/21 03:45:04;;;;;;;4.47;4.10;;;9.90;99.90;;;;;;4960814;28;20477;-35
2023/12/21 03:47:30;;;;;;;5.23;4.33;;;9.90;99.90;;;;;;4986843;28;21002;-34
2023/12/21 03:49:56;;;;;;;4.50;3.63;;;10.00;99.90;;;;;;4982572;28;20424;-33
2023/12/21 03:52:23;;;;;;;5.20;4.30;;;9.90;99.90;;;;;;4973775;28;20445;-35
2023/12/21 03:54:49;;;;;;;4.23;3.83;;;9.90;99.90;;;;;;4980919;28;20424;-36
2023/12/21 03:57:15;;;;;;;4.00;3.60;;;9.90;99.90;;;;;;4962167;28;20437;-37
2023/12/21 03:59:41;;;;;;;4.53;3.83;;;9.90;99.90;;;;;;4980357;28;20484;-38
2023/12/21 04:02:10;;;;;;;6.20;3.87;;;9.90;99.90;;;;;;4963380;28;20465;-39
2023/12/21 04:04:36;;;;;;;5.63;3.80;;;9.90;99.90;;;;;;4997400;28;20480;-35
2023/12/21 04:07:02;;;;;;;7.10;4.30;;;10.00;99.90;;;;;;4982207;28;21353;-35
2023/12/21 04:09:31;;;;;;;5.20;3.87;;;10.00;99.90;;;;;;4952352;28;20549;-31
2023/12/21 04:12:01;;;;;;;4.77;3.93;;;10.00;99.90;;;;;;4980808;28;20429;-35
2023/12/21 04:14:28;;;;;;;3.57;3.33;;;10.00;99.90;;;;;;4980635;28;20421;-37
2023/12/21 04:16:54;;;;;;;4.07;3.57;;;10.00;99.90;;;;;;4981206;28;20453;-35
2023/12/21 04:19:20;;;;;;;3.83;3.40;;;10.00;99.90;;;;;;4962903;28;20560;-34
2023/12/21 04:21:47;;;;;;;4.13;3.80;;;10.00;99.90;;;;;;4962720;28;21107;-30
2023/12/21 04:24:15;;;;;;;4.13;3.30;;;10.00;99.90;;;;;;4963997;28;20442;-34
2023/12/21 04:26:43;;;;;;;4.63;3.30;;;10.00;99.90;;;;;;4980740;28;20479;-37
2023/12/21 04:29:09;;;;;;;3.50;3.07;;;10.00;99.90;;;;;;4947754;28;20487;-33
2023/12/21 04:31:37;;;;;;;3.70;3.40;;;10.00;99.90;;;;;;4963659;28;20448;-36
2023/12/21 04:34:03;;;;;;;3.63;3.27;;;10.00;99.90;;;;;;4980857;28;20527;-39
2023/12/21 04:36:32;;;;;;;4.77;3.63;;;10.00;99.90;;;;;;4980651;28;20964;-34
2023/12/21 04:38:57;;;;;;;3.60;3.27;;;10.00;99.90;;;;;;4996612;28;20440;-34
2023/12/21 04:41:25;;;;;;;4.03;3.30;;;10.00;99.90;;;;;;4962760;28;20448;-33
2023/12/21 04:43:52;;;;;;;4.10;3.70;;;10.00;99.90;;;;;;4963135;28;20425;-32
2023/12/21 04:46:20;;;;;;;5.43;3.50;;;10.00;99.90;;;;;;4980822;28;20440;-34
2023/12/21 04:48:46;;;;;;;9.23;3.83;;;10.00;99.90;;;;;;4962431;28;20987;-38
2023/12/21 04:51:18;;;;;;;3.57;3.27;;;10.00;99.90;;;;;;4974718;28;20413;-34
2023/12/21 04:53:44;;;;;;;3.70;3.00;;;10.00;99.90;;;;;;4981770;28;20476;-36
2023/12/21 04:56:10;;;;;;;3.83;3.30;;;10.00;99.90;;;;;;4999934;28;20444;-36
2023/12/21 04:58:37;;;;;;;6.17;3.60;;;10.00;99.90;;;;;;4999382;28;20432;-37
2023/12/21 05:01:09;;;;;;;3.47;2.87;;;10.00;99.90;;;;;;4982235;28;21270;-34
2023/12/21 05:03:35;;;;;;;3.00;2.77;;;10.00;99.90;;;;;;4999812;28;20583;-37
2023/12/21 05:06:03;;;;;;;3.47;2.90;;;10.00;99.90;;;;;;4999717;28;20444;-36
2023/12/21 05:08:29;;;;;;;2.90;2.70;;;10.00;99.90;;;;;;4982106;28;20845;-40
2023/12/21 05:10:55;;;;;;;3.30;2.90;;;10.00;99.90;;;;;;5000579;28;20986;-34
2023/12/21 05:14:12;;;;;;;3.40;3.17;;;10.00;99.90;;;;;;4982312;28;20437;-38
2023/12/21 05:16:41;;;;;;;3.37;3.07;;;10.10;99.90;;;;;;4979337;28;20450;-39
2023/12/21 05:19:09;;;;;;;3.83;3.00;;;10.10;99.90;;;;;;4979835;28;20885;-36
2023/12/21 05:21:38;;;;;;;4.67;3.30;;;10.10;99.90;;;;;;4962166;28;20424;-38
2023/12/21 05:24:06;;;;;;;2.77;2.57;;;10.00;99.90;;;;;;4979802;28;20454;-39
2023/12/21 05:26:32;;;;;;;3.23;2.80;;;10.00;99.90;;;;;;4986752;28;20590;-41
2023/12/21 05:28:58;;;;;;;2.60;2.40;;;10.10;99.90;;;;;;4999286;28;20459;-39
2023/12/21 05:31:25;;;;;;;3.10;2.80;;;10.10;99.90;;;;;;4999879;28;20565;-41
2023/12/21 05:33:53;;;;;;;3.20;2.60;;;10.10;99.90;;;;;;4948422;28;20454;-31
2023/12/21 05:36:24;;;;;;;2.40;2.20;;;10.10;99.90;;;;;;4980331;28;20480;-41
2023/12/21 05:38:51;;;;;;;2.50;2.30;;;10.10;99.90;;;;;;4979470;28;20427;-40
2023/12/21 05:41:17;;;;;;;4.40;3.00;;;10.10;99.90;;;;;;4979835;28;20476;-35
2023/12/21 05:43:47;;;;;;;4.70;3.00;;;10.10;99.90;;;;;;4989653;28;20464;-38
2023/12/21 05:46:15;;;;;;;3.57;3.27;;;10.10;99.90;;;;;;4999665;28;20534;-37
2023/12/21 05:48:44;;;;;;;3.77;3.00;;;10.10;99.90;;;;;;4981334;28;21458;-38
2023/12/21 05:51:10;;;;;;;3.90;3.50;;;10.10;99.90;;;;;;5000006;28;20421;-32
2023/12/21 05:53:36;;;;;;;3.83;3.10;;;10.10;99.90;;;;;;4999151;28;20423;-36
2023/12/21 05:56:07;;;;;;;3.60;3.30;;;10.10;99.90;;;;;;4999097;28;20487;-35
2023/12/21 05:58:34;;;;;;;4.93;3.70;;;10.10;99.90;;;;;;4985674;28;20999;-37
2023/12/21 06:01:00;;;;;;;5.10;3.20;;;10.10;99.90;;;;;;4979677;28;20997;-38
2023/12/21 06:03:26;;;;;;;3.83;3.37;;;10.10;99.90;;;;;;4979952;28;20568;-36
2023/12/21 06:05:52;;;;;;;5.70;3.10;;;10.10;99.90;;;;;;4987664;28;20441;-37
2023/12/21 06:08:20;;;;;;;3.77;3.07;;;10.10;99.90;;;;;;4999410;28;20416;-40
2023/12/21 06:10:48;;;;;;;4.60;3.03;;;10.10;99.90;;;;;;4972486;28;20476;-34
2023/12/21 06:16:31;;;;;;;7.23;3.70;;;10.10;99.90;;;;;;4977464;28;20453;-37
2023/12/21 06:19:00;;;;;;;6.63;3.67;;;10.20;99.90;;;;;;4978455;28;20429;-34
2023/12/21 06:21:28;;;;;;;7.23;3.20;;;10.10;99.90;;;;;;4979080;28;20432;-37
2023/12/21 06:23:57;;;;;;;6.23;3.93;;;10.10;99.90;;;;;;4978728;28;20419;-38
2023/12/21 06:26:23;;;;;;;4.43;3.47;;;10.10;99.90;;;;;;4966498;28;20486;-39
2023/12/21 06:28:49;;;;;;;8.03;4.07;;;10.10;99.90;;;;;;4964328;28;20523;-36
2023/12/21 06:31:17;;;;;;;6.60;3.50;;;10.20;99.90;;;;;;4968735;28;20525;-37
2023/12/21 06:33:43;;;;;;;6.43;3.80;;;10.20;99.90;;;;;;4979491;28;20464;-35
2023/12/21 06:36:09;;;;;;;4.40;3.30;;;10.20;99.90;;;;;;4984867;28;20433;-38
2023/12/21 06:38:35;;;;;;;5.87;3.57;;;10.20;99.90;;;;;;5002297;28;20415;-37
2023/12/21 06:41:01;;;;;;;7.57;3.80;;;10.20;99.90;;;;;;5002278;28;20442;-38
2023/12/21 06:43:49;;;;;;;6.23;3.63;;;10.20;99.90;;;;;;5001771;28;20472;-39
2023/12/21 06:46:20;;;;;;;4.73;4.10;;;10.20;99.90;;;;;;5001637;28;21183;-35
2023/12/21 06:48:49;;;;;;;5.57;3.60;;;10.20;99.90;;;;;;5001746;28;20414;-36
2023/12/21 06:51:15;;;;;;;7.00;4.40;;;10.20;99.90;;;;;;4965193;28;21282;-36
2023/12/21 06:53:45;;;;;;;8.20;4.20;;;10.20;99.90;;;;;;4982212;28;21252;-38
2023/12/21 06:56:11;;;;;;;6.17;3.90;;;10.20;99.90;;;;;;4982282;28;20430;-39
2023/12/21 06:58:38;;;;;;;8.60;4.63;;;10.20;99.90;;;;;;4981726;28;21180;-36
2023/12/21 07:01:04;;;;;;;8.33;5.00;;;10.20;99.90;;;;;;4995603;28;21007;-37
2023/12/21 07:03:30;;;;;;;6.30;4.10;;;10.20;99.90;;;;;;4966848;28;20464;-36
2023/12/21 07:05:59;;;;;;;6.17;4.60;;;10.20;99.90;;;;;;4966816;28;20448;-38
2023/12/21 07:08:30;;;;;;;7.70;4.17;;;10.20;99.90;;;;;;4974909;28;20592;-33
2023/12/21 07:10:56;;;;;;;5.90;4.60;;;10.20;99.90;;;;;;4964446;28;20424;-40
2023/12/21 07:13:25;;;;;;;6.77;4.33;;;10.20;99.90;;;;;;4982406;28;20426;-38
2023/12/21 07:15:52;;;;;;;5.70;4.37;;;10.20;99.90;;;;;;5000223;28;20937;-38
2023/12/21 07:18:20;;;;;;;7.40;4.93;;;10.20;99.90;;;;;;4984100;28;20487;-34
2023/12/21 07:20:46;;;;;;;5.97;4.30;;;10.20;99.90;;;;;;4997648;28;20804;-35
2023/12/21 07:23:12;;;;;;;10.07;4.83;;;10.20;99.90;;;;;;4950641;28;20996;-35
2023/12/21 07:25:38;;;;;;;9.70;5.50;;;10.20;99.90;;;;;;4982113;28;20496;-38
2023/12/21 07:28:06;;;;;;;7.93;4.40;;;10.30;99.90;;;;;;4964766;28;20504;-39
2023/12/21 07:30:32;;;;;;;9.27;4.53;;;10.30;99.90;;;;;;4981398;28;21008;-37
2023/12/21 07:33:00;;;;;;;6.53;4.40;;;10.30;99.90;;;;;;4980869;28;20446;-38
2023/12/21 07:35:26;;;;;;;9.50;5.00;;;10.30;99.90;;;;;;4994261;28;20425;-38
2023/12/21 07:37:53;;;;;;;5.80;4.53;;;10.30;99.90;;;;;;4986289;28;20437;-38
2023/12/21 07:40:25;;;;;;;5.37;3.87;;;10.30;99.90;;;;;;4996461;28;20496;-37
2023/12/21 07:43:01;;;;;;;6.50;4.87;;;10.30;99.90;;;;;;5001203;28;20464;-36
2023/12/21 07:45:36;;;;;;;5.77;4.50;;;10.30;99.90;;;;;;4963914;28;20475;-38
2023/12/21 07:48:20;;;;;;;5.90;4.03;;;10.30;99.90;;;;;;4992302;28;20428;-37
2023/12/21 07:50:58;;;;;;;6.30;4.00;;;10.30;99.90;;;;;;5000947;28;20421;-39
2023/12/21 07:53:45;;;;;;;7.07;4.20;;;10.30;99.90;;;;;;4982593;28;21264;-40
2023/12/21 08:00:52;;;;;;;7.63;4.10;;;10.30;99.90;;;;;;4939207;29;20420;-37
2023/12/21 08:03:28;;;;;;;13.20;5.40;;;10.30;99.90;;;;;;4939372;29;20569;-37
2023/12/21 08:06:01;;;;;;;9.30;4.70;;;10.30;99.90;;;;;;4938820;28;20444;-32
2023/12/21 08:08:41;;;;;;;10.13;4.77;;;10.30;99.90;;;;;;4948707;28;20422;-38
2023/12/21 08:11:44;;;;;;;10.77;4.97;;;10.30;99.90;;;;;;4945505;28;21238;-40
2023/12/21 08:14:35;;;;;;;6.90;4.20;;;10.30;99.90;;;;;;4931911;28;21210;-34
2023/12/21 08:17:09;;;;;;;8.37;5.13;;;10.30;99.90;;;;;;4923269;29;20459;-39
2023/12/21 08:19:38;;;;;;;8.77;4.70;;;10.30;99.90;;;;;;4938650;29;20427;-36
2023/12/21 08:22:04;;;;;;;10.23;4.70;;;10.30;99.90;;;;;;4939249;29;20498;-37
2023/12/21 08:24:33;;;;;;;7.90;4.50;;;10.30;99.90;;;;;;4939089;29;20438;-36
2023/12/21 08:27:02;;;;;;;8.00;4.77;;;10.30;99.90;;;;;;4938689;28;20439;-34
2023/12/21 08:29:28;;;;;;;6.23;4.07;;;10.30;99.90;;;;;;4941177;28;20455;-38
2023/12/21 08:31:59;;;;;;;9.10;4.30;;;10.30;99.90;;;;;;4937851;29;20432;-35
2023/12/21 08:34:25;;;;;;;7.27;4.50;;;10.30;99.90;;;;;;4935276;28;20465;-37
2023/12/21 08:36:53;;;;;;;9.27;4.20;;;10.30;99.90;;;;;;4979560;28;20489;-36
2023/12/21 08:39:19;;;;;;;5.80;4.00;;;10.30;99.90;;;;;;4962402;28;20430;-35
2023/12/21 08:41:45;;;;;;;6.03;3.67;;;10.30;99.90;;;;;;4962220;28;20475;-34
2023/12/21 08:44:13;;;;;;;7.53;5.60;;;10.30;99.90;;;;;;4979509;28;20618;-39
2023/12/21 08:46:43;;;;;;;6.10;4.13;;;10.40;99.90;;;;;;4999154;28;20444;-34
2023/12/21 08:49:13;;;;;;;6.00;4.33;;;10.40;99.90;;;;;;4959944;28;20454;-39
2023/12/21 08:51:39;;;;;;;10.70;4.77;;;10.40;99.90;;;;;;4956483;28;20422;-36
2023/12/21 08:54:06;;;;;;;8.17;4.23;;;10.40;99.90;;;;;;4979609;28;20414;-36
2023/12/21 08:56:34;;;;;;;6.20;3.50;;;10.40;99.90;;;;;;4978544;28;20964;-35
2023/12/21 08:59:01;;;;;;;6.03;3.90;;;10.40;99.90;;;;;;4979090;28;20414;-37
2023/12/21 09:01:30;;;;;;;6.80;3.70;;;10.40;99.90;;;;;;4961190;28;20422;-39
2023/12/21 09:03:58;;;;;;;5.73;3.57;;;10.40;99.90;;;;;;4961269;28;20461;-39
2023/12/21 09:06:26;;;;;;;8.17;3.90;;;10.40;99.90;;;;;;4978933;28;20570;-33
2023/12/21 09:08:54;;;;;;;6.53;3.27;;;10.40;99.90;;;;;;4961057;28;20437;-35
2023/12/21 09:11:20;;;;;;;5.77;3.80;;;10.40;99.90;;;;;;4947219;28;20460;-33
2023/12/21 09:13:51;;;;;;;4.90;3.63;;;10.40;99.90;;;;;;4983973;28;20421;-35
2023/12/21 09:16:17;;;;;;;6.37;3.73;;;10.40;99.90;;;;;;4996828;28;20452;-36
2023/12/21 09:18:44;;;;;;;5.90;3.87;;;10.40;99.90;;;;;;4980727;28;20416;-38
2023/12/21 09:21:11;;;;;;;4.20;3.10;;;10.40;99.90;;;;;;4996620;28;20939;-37
2023/12/21 09:23:41;;;;;;;5.40;3.10;;;10.40;99.90;;;;;;4998660;28;21108;-40
2023/12/21 09:26:10;;;;;;;4.47;3.03;;;10.40;99.90;;;;;;4986638;28;21292;-39
2023/12/21 09:28:37;;;;;;;5.17;2.80;;;10.50;99.90;;;;;;4960951;28;20548;-40
2023/12/21 09:31:08;;;;;;;2.83;2.63;;;10.40;99.90;;;;;;4978902;28;20438;-40
2023/12/21 09:33:40;;;;;;;4.13;3.57;;;10.40;99.90;;;;;;4981914;28;20437;-41
2023/12/21 09:36:06;;;;;;;2.80;2.50;;;10.50;99.90;;;;;;4984013;28;20456;-35
2023/12/21 09:38:32;;;;;;;4.00;2.83;;;10.40;99.90;;;;;;4980527;28;20453;-39
2023/12/21 09:40:59;;;;;;;3.70;2.40;;;10.50;99.90;;;;;;4978391;28;20509;-38
2023/12/21 09:43:25;;;;;;;3.43;2.10;;;10.50;99.90;;;;;;4960069;28;20567;-36
2023/12/21 09:45:52;;;;;;;3.03;2.63;;;10.40;99.90;;;;;;4990455;28;20456;-37
2023/12/21 09:48:21;;;;;;;2.33;2.13;;;10.50;99.90;;;;;;4998624;28;20494;-41
2023/12/21 09:50:49;;;;;;;4.00;2.40;;;10.50;99.90;;;;;;4997787;28;20444;-40
2023/12/21 09:53:23;;;;;;;2.40;2.17;;;10.50;99.90;;;;;;4971713;28;20428;-35
2023/12/21 09:55:50;;;;;;;5.43;2.63;;;10.50;99.90;;;;;;4978552;28;20869;-40
2023/12/21 09:58:18;;;;;;;3.90;2.17;;;10.50;99.90;;;;;;4962597;28;20428;-37
2023/12/21 10:00:44;;;;;;;4.30;2.50;;;10.50;99.90;;;;;;4959921;28;20487;-36
2023/12/21 10:03:13;;;;;;;2.60;2.40;;;10.50;99.90;;;;;;4976853;28;20456;-35
2023/12/21 10:05:42;;;;;;;3.83;2.27;;;10.50;99.90;;;;;;4975709;28;20453;-36
2023/12/21 10:08:10;;;;;;;2.40;2.20;;;10.50;99.90;;;;;;4944643;28;20487;-35
2023/12/21 10:10:39;;;;;;;2.23;2.03;;;10.50;99.90;;;;;;4966869;28;20769;-37
2023/12/21 10:13:08;;;;;;;2.40;2.20;;;10.60;99.90;;;;;;4967303;28;20453;-37
2023/12/21 10:15:34;;;;;;;2.77;2.57;;;10.60;99.90;;;;;;4982421;28;20433;-38
2023/12/21 10:18:05;;;;;;;1.73;1.60;;;10.50;99.90;;;;;;4964552;28;21313;-37
2023/12/21 10:20:31;;;;;;;2.40;1.90;;;10.60;99.90;;;;;;4964717;28;20987;-37
2023/12/21 10:22:58;;;;;;;2.60;2.00;;;10.60;99.90;;;;;;4982476;28;20599;-38
2023/12/21 10:25:25;;;;;;;2.50;1.93;;;10.50;99.90;;;;;;4991206;28;20467;-38
2023/12/21 10:27:56;;;;;;;2.20;2.00;;;10.60;99.90;;;;;;4967997;28;20499;-39
2023/12/21 10:30:26;;;;;;;2.40;2.13;;;10.60;99.90;;;;;;4949030;28;20422;-40
2023/12/21 10:32:56;;;;;;;3.50;2.20;;;10.60;99.90;;;;;;4963338;28;20445;-39
2023/12/21 10:35:22;;;;;;;6.60;2.50;;;10.60;99.90;;;;;;4962861;28;20578;-37
2023/12/21 10:37:54;;;;;;;2.37;2.20;;;10.60;99.90;;;;;;4960999;28;20501;-39
2023/12/21 10:40:22;;;;;;;3.10;2.43;;;10.60;99.90;;;;;;4928796;28;20826;-37
2023/12/21 10:42:49;;;;;;;2.40;2.20;;;10.60;99.90;;;;;;4970410;28;20475;-34
2023/12/21 10:45:19;;;;;;;2.23;2.13;;;10.60;99.90;;;;;;4999913;28;20427;-38
2023/12/21 10:47:55;;;;;;;2.80;2.53;;;10.60;99.90;;;;;;4992197;28;20430;-39
2023/12/21 10:50:25;;;;;;;2.70;2.50;;;10.60;99.90;;;;;;4942663;28;20505;-38
2023/12/21 10:52:59;;;;;;;2.80;2.60;;;10.60;99.90;;;;;;4960196;28;20446;-40
2023/12/21 10:55:26;;;;;;;2.83;2.30;;;10.60;99.90;;;;;;4954718;28;20425;-37
2023/12/21 10:57:55;;;;;;;2.63;2.30;;;10.60;99.90;;;;;;4983717;28;20444;-39
2023/12/21 11:00:23;;;;;;;3.73;2.83;;;10.60;99.90;;;;;;4979966;28;20452;-35
2023/12/21 11:02:49;;;;;;;3.50;3.20;;;10.60;99.90;;;;;;4980318;28;20465;-36
2023/12/21 11:05:22;;;;;;;3.50;3.10;;;10.60;99.90;;;;;;4961804;28;21019;-37
2023/12/21 11:07:53;;;;;;;3.37;3.17;;;10.60;99.90;;;;;;4946161;28;20884;-39
2023/12/21 11:10:24;;;;;;;3.13;2.90;;;10.60;99.90;;;;;;4977953;28;21204;-38
2023/12/21 11:12:51;;;;;;;4.10;3.73;;;10.60;99.90;;;;;;4999482;28;20445;-36
2023/12/21 11:15:19;;;;;;;3.40;3.10;;;10.70;99.90;;;;;;4980941;28;20416;-36
2023/12/21 11:17:58;;;;;;;3.33;3.03;;;10.70;99.90;;;;;;4996611;28;20430;-37
2023/12/21 11:20:35;;;;;;;3.33;3.13;;;10.70;99.90;;;;;;4978960;28;20478;-38
2023/12/21 11:23:05;;;;;;;3.30;3.00;;;10.70;99.90;;;;;;4982251;28;20471;-38
2023/12/21 11:25:33;;;;;;;4.10;3.53;;;10.70;99.90;;;;;;4967854;28;20426;-39
2023/12/21 11:28:08;;;;;;;4.33;3.40;;;10.70;99.90;;;;;;4986125;28;20422;-32
2023/12/21 11:30:35;;;;;;;4.07;3.70;;;10.70;99.90;;;;;;4965964;28;20536;-37
2023/12/21 11:33:08;;;;;;;4.80;4.40;;;10.70;99.90;;;;;;4966279;28;20503;-37
2023/12/21 11:35:37;;;;;;;4.10;3.80;;;10.70;99.90;;;;;;4946880;28;20434;-34
2023/12/21 11:38:11;;;;;;;4.57;3.83;;;10.70;99.90;;;;;;4945533;28;21082;-32
2023/12/21 11:40:41;;;;;;;3.93;3.63;;;10.70;99.90;;;;;;4961165;28;20468;-35
2023/12/21 11:43:08;;;;;;;4.10;3.70;;;10.80;99.90;;;;;;4971257;28;20464;-36
2023/12/21 11:45:38;;;;;;;8.57;3.73;;;10.80;99.90;;;;;;4966376;28;20461;-33
2023/12/21 11:48:08;;;;;;;5.50;4.07;;;10.80;99.90;;;;;;4982967;28;20410;-35
2023/12/21 11:50:35;;;;;;;4.03;3.63;;;10.80;99.90;;;;;;4963640;28;20421;-36
2023/12/21 11:53:15;;;;;;;5.70;3.63;;;10.80;99.90;;;;;;4948070;28;20791;-39
2023/12/21 11:55:43;;;;;;;3.87;3.50;;;10.80;99.90;;;;;;4981058;28;20505;-36
2023/12/21 11:58:22;;;;;;;4.80;3.80;;;10.80;99.90;;;;;;4981042;28;21019;-39
2023/12/21 12:00:53;;;;;;;6.03;3.60;;;10.80;99.90;;;;;;4964396;28;20515;-36
2023/12/21 12:03:23;;;;;;;5.03;3.10;;;10.80;99.90;;;;;;4979062;28;21349;-38
2023/12/21 12:05:53;;;;;;;7.40;3.73;;;10.80;99.90;;;;;;4985200;28;20492;-36
2023/12/21 12:08:23;;;;;;;3.50;3.20;;;10.80;99.90;;;;;;4981046;28;20425;-36
2023/12/21 12:10:50;;;;;;;4.37;3.33;;;10.90;99.90;;;;;;4999428;28;21301;-34
2023/12/21 12:13:23;;;;;;;3.33;2.97;;;10.90;99.90;;;;;;4980452;28;20872;-36
2023/12/21 12:15:52;;;;;;;3.17;2.80;;;10.90;99.90;;;;;;4965453;28;20440;-34
2023/12/21 12:18:22;;;;;;;2.90;2.70;;;10.90;99.90;;;;;;4997756;28;20421;-32
2023/12/21 12:20:50;;;;;;;4.50;3.30;;;10.90;99.90;;;;;;4964513;28;20480;-38
2023/12/21 12:23:18;;;;;;;4.43;2.73;;;10.90;99.90;;;;;;4960724;28;20472;-37
2023/12/21 12:25:44;;;;;;;3.97;3.33;;;10.90;99.90;;;;;;4962697;28;20465;-38
2023/12/21 12:28:11;;;;;;;3.93;2.70;;;10.90;99.90;;;;;;4962963;28;20487;-32
2023/12/21 12:30:40;;;;;;;4.03;2.93;;;10.90;99.90;;;;;;4979292;28;20453;-39
2023/12/21 12:33:06;;;;;;;4.70;3.00;;;10.90;99.90;;;;;;4955766;28;20579;-35
2023/12/21 12:35:34;;;;;;;6.13;3.10;;;10.90;99.90;;;;;;4999751;28;20448;-39
2023/12/21 12:38:06;;;;;;;3.40;2.33;;;10.90;99.90;;;;;;5000340;28;21096;-39
2023/12/21 12:40:40;;;;;;;3.77;2.87;;;10.90;99.90;;;;;;4998581;28;20465;-35
2023/12/21 12:43:10;;;;;;;3.53;2.33;;;11.00;99.90;;;;;;4980054;28;20477;-36
2023/12/21 12:45:36;;;;;;;6.10;2.70;;;10.90;99.90;;;;;;4961029;28;21127;-36
2023/12/21 12:48:02;;;;;;;3.20;2.47;;;11.00;99.90;;;;;;4970171;28;20440;-36
2023/12/21 12:50:30;;;;;;;4.13;2.30;;;11.00;99.90;;;;;;4993236;28;20452;-36
2023/12/21 12:52:58;;;;;;;4.03;2.43;;;11.00;99.90;;;;;;4962238;28;20454;-37
2023/12/21 12:55:25;;;;;;;2.30;2.00;;;11.00;99.90;;;;;;4983935;28;20426;-37
2023/12/21 12:57:52;;;;;;;4.67;2.20;;;11.00;99.90;;;;;;4982233;28;20818;-37
2023/12/21 13:00:22;;;;;;;2.90;2.50;;;11.00;99.90;;;;;;4983469;28;21527;-32
2023/12/21 13:02:50;;;;;;;2.30;2.10;;;11.00;99.90;;;;;;4990514;28;21281;-33
2023/12/21 13:05:18;;;;;;;2.43;2.23;;;11.00;99.90;;;;;;4970182;28;20443;-32